DWI460 MDSD-TNCM
Flight info
| Callsign | DWI460 |
|---|---|
| Flight time | 0h 59m |
| Altitude | 33000 |
| Route | MELLA4J MELLA G633 MAZ RTE12 JOSHE DCT STIIV L577 GOUDA DCT PJM |
| Aircraft | B38M/M-SDE1FGHILORVWXY/HB1 |
Departure
| Time | 2026-05-06 14:54 |
|---|---|
| Airport | Las Américas International Airport (MDSD) |
Arrival
| Time | 2026-05-06 15:53 |
|---|---|
| Airport | Princess Juliana International Airport (TNCM) |
| Time | Latitude | Longitude | Altitude | Speed | Heading |
|---|---|---|---|---|---|
| 2026-05-06 14:36 | 18.43271 | -69.67591 | 70 ft | 0 kts | 218° |
| 2026-05-06 14:45 | 18.43279 | -69.67584 | 61 ft | 4 kts | 213° |
| 2026-05-06 14:45 | 18.43303 | -69.67571 | 62 ft | 4 kts | 214° |
| 2026-05-06 14:45 | 18.43315 | -69.67552 | 66 ft | 4 kts | 258° |
| 2026-05-06 14:46 | 18.43313 | -69.67529 | 63 ft | 4 kts | 317° |
| 2026-05-06 14:46 | 18.43291 | -69.67521 | 60 ft | 4 kts | 352° |
| 2026-05-06 14:46 | 18.43275 | -69.67518 | 64 ft | 0 kts | 341° |
| 2026-05-06 14:49 | 18.43284 | -69.67521 | 65 ft | 4 kts | 341° |
| 2026-05-06 14:50 | 18.43331 | -69.67537 | 63 ft | 10 kts | 341° |
| 2026-05-06 14:50 | 18.43413 | -69.67521 | 66 ft | 11 kts | 21° |
| 2026-05-06 14:50 | 18.43467 | -69.67535 | 67 ft | 11 kts | 339° |
| 2026-05-06 14:50 | 18.43557 | -69.67571 | 70 ft | 17 kts | 338° |
| 2026-05-06 14:51 | 18.43688 | -69.67624 | 67 ft | 23 kts | 339° |
| 2026-05-06 14:51 | 18.43815 | -69.67675 | 71 ft | 20 kts | 339° |
| 2026-05-06 14:51 | 18.43940 | -69.67726 | 69 ft | 15 kts | 339° |
| 2026-05-06 14:51 | 18.44047 | -69.67768 | 68 ft | 18 kts | 339° |
| 2026-05-06 14:52 | 18.44129 | -69.67765 | 67 ft | 9 kts | 57° |
| 2026-05-06 14:52 | 18.44160 | -69.67701 | 68 ft | 11 kts | 64° |
| 2026-05-06 14:52 | 18.44186 | -69.67618 | 67 ft | 13 kts | 73° |
| 2026-05-06 14:52 | 18.44191 | -69.67542 | 65 ft | 8 kts | 133° |
| 2026-05-06 14:53 | 18.44136 | -69.67517 | 71 ft | 10 kts | 163° |
| 2026-05-06 14:53 | 18.43988 | -69.67464 | 72 ft | 56 kts | 160° |
| 2026-05-06 14:53 | 18.43349 | -69.67228 | 68 ft | 136 kts | 161° |
| 2026-05-06 14:53 | 18.42267 | -69.66829 | 265 ft | 183 kts | 160° |
| 2026-05-06 14:54 | 18.41014 | -69.66371 | 997 ft | 195 kts | 159° |
| 2026-05-06 14:54 | 18.39698 | -69.65858 | 1793 ft | 211 kts | 158° |
| 2026-05-06 14:54 | 18.38257 | -69.65254 | 2552 ft | 230 kts | 153° |
| 2026-05-06 14:54 | 18.36965 | -69.64219 | 3446 ft | 243 kts | 127° |
| 2026-05-06 14:55 | 18.36223 | -69.62592 | 4325 ft | 252 kts | 107° |
| 2026-05-06 14:55 | 18.35875 | -69.60784 | 5504 ft | 254 kts | 97° |
| 2026-05-06 14:55 | 18.35696 | -69.58908 | 6546 ft | 260 kts | 96° |
| 2026-05-06 14:55 | 18.35527 | -69.56962 | 7274 ft | 275 kts | 97° |
| 2026-05-06 14:56 | 18.35343 | -69.54925 | 8175 ft | 280 kts | 97° |
| 2026-05-06 14:56 | 18.35155 | -69.52902 | 9141 ft | 284 kts | 97° |
| 2026-05-06 14:56 | 18.34957 | -69.50804 | 10019 ft | 291 kts | 97° |
| 2026-05-06 14:56 | 18.34753 | -69.48644 | 10760 ft | 302 kts | 97° |
| 2026-05-06 14:57 | 18.34537 | -69.46389 | 11285 ft | 318 kts | 97° |
| 2026-05-06 14:57 | 18.34311 | -69.44018 | 11844 ft | 332 kts | 96° |
| 2026-05-06 14:57 | 18.34077 | -69.41572 | 12591 ft | 337 kts | 96° |
| 2026-05-06 14:57 | 18.33843 | -69.39129 | 13362 ft | 342 kts | 96° |
| 2026-05-06 14:58 | 18.33599 | -69.36582 | 14083 ft | 348 kts | 95° |
| 2026-05-06 14:58 | 18.33356 | -69.34062 | 14723 ft | 353 kts | 95° |
| 2026-05-06 14:58 | 18.33107 | -69.31469 | 15383 ft | 357 kts | 95° |
| 2026-05-06 14:58 | 18.32854 | -69.28843 | 16001 ft | 363 kts | 95° |
| 2026-05-06 14:59 | 18.32598 | -69.26187 | 16652 ft | 367 kts | 95° |
| 2026-05-06 14:59 | 18.32339 | -69.23502 | 17287 ft | 371 kts | 95° |
| 2026-05-06 14:59 | 18.32079 | -69.20814 | 17912 ft | 375 kts | 95° |
| 2026-05-06 14:59 | 18.31813 | -69.18067 | 18520 ft | 379 kts | 95° |
| 2026-05-06 15:00 | 18.31543 | -69.15284 | 19056 ft | 382 kts | 95° |
| 2026-05-06 15:00 | 18.31271 | -69.12488 | 19606 ft | 385 kts | 95° |
| 2026-05-06 15:00 | 18.30997 | -69.09671 | 20152 ft | 388 kts | 95° |
| 2026-05-06 15:00 | 18.30721 | -69.06831 | 20697 ft | 391 kts | 95° |
| 2026-05-06 15:01 | 18.30442 | -69.03975 | 21236 ft | 393 kts | 95° |
| 2026-05-06 15:01 | 18.30224 | -69.01745 | 21658 ft | 395 kts | 95° |
| 2026-05-06 15:01 | 18.30003 | -68.99493 | 22074 ft | 398 kts | 94° |
| 2026-05-06 15:01 | 18.29746 | -68.96873 | 22567 ft | 400 kts | 94° |
| 2026-05-06 15:02 | 18.29464 | -68.93997 | 23084 ft | 403 kts | 94° |
| 2026-05-06 15:02 | 18.29175 | -68.91046 | 23611 ft | 406 kts | 94° |
| 2026-05-06 15:02 | 18.28882 | -68.88079 | 24056 ft | 409 kts | 94° |
| 2026-05-06 15:02 | 18.28587 | -68.85090 | 24454 ft | 412 kts | 94° |
| 2026-05-06 15:03 | 18.28321 | -68.82392 | 24832 ft | 415 kts | 94° |
| 2026-05-06 15:03 | 18.28033 | -68.79475 | 25234 ft | 418 kts | 94° |
| 2026-05-06 15:03 | 18.27818 | -68.77302 | 25529 ft | 420 kts | 94° |
| 2026-05-06 15:03 | 18.27590 | -68.75005 | 25832 ft | 423 kts | 94° |
| 2026-05-06 15:04 | 18.27352 | -68.72609 | 26129 ft | 426 kts | 94° |
| 2026-05-06 15:04 | 18.27046 | -68.69533 | 26508 ft | 429 kts | 94° |
| 2026-05-06 15:04 | 18.26733 | -68.66391 | 26897 ft | 433 kts | 94° |
| 2026-05-06 15:04 | 18.26418 | -68.63232 | 27276 ft | 436 kts | 94° |
| 2026-05-06 15:05 | 18.26100 | -68.60047 | 27652 ft | 439 kts | 94° |
| 2026-05-06 15:05 | 18.25778 | -68.56836 | 28030 ft | 442 kts | 94° |
| 2026-05-06 15:05 | 18.25458 | -68.53645 | 28392 ft | 446 kts | 94° |
| 2026-05-06 15:05 | 18.25127 | -68.50349 | 28761 ft | 449 kts | 94° |
| 2026-05-06 15:06 | 18.24797 | -68.47067 | 29124 ft | 452 kts | 94° |
| 2026-05-06 15:06 | 18.24468 | -68.43797 | 29470 ft | 456 kts | 95° |
| 2026-05-06 15:06 | 18.24132 | -68.40468 | 29815 ft | 459 kts | 94° |
| 2026-05-06 15:06 | 18.23794 | -68.37125 | 30169 ft | 462 kts | 94° |
| 2026-05-06 15:07 | 18.23452 | -68.33752 | 30468 ft | 464 kts | 95° |
| 2026-05-06 15:07 | 18.23108 | -68.30364 | 30778 ft | 467 kts | 95° |
| 2026-05-06 15:07 | 18.22762 | -68.26962 | 31093 ft | 469 kts | 95° |
| 2026-05-06 15:07 | 18.22414 | -68.23544 | 31404 ft | 471 kts | 95° |
| 2026-05-06 15:08 | 18.22063 | -68.20105 | 31708 ft | 473 kts | 95° |
| 2026-05-06 15:08 | 18.21709 | -68.16643 | 32006 ft | 476 kts | 95° |
| 2026-05-06 15:08 | 18.21354 | -68.13171 | 32313 ft | 478 kts | 95° |
| 2026-05-06 15:08 | 18.21002 | -68.09738 | 32601 ft | 480 kts | 95° |
| 2026-05-06 15:09 | 18.20642 | -68.06235 | 32894 ft | 482 kts | 95° |
| 2026-05-06 15:09 | 18.20281 | -68.02723 | 33178 ft | 484 kts | 95° |
| 2026-05-06 15:09 | 18.20053 | -67.99182 | 33441 ft | 486 kts | 86° |
| 2026-05-06 15:09 | 18.20319 | -67.95633 | 33744 ft | 487 kts | 84° |
| 2026-05-06 15:10 | 18.20550 | -67.92086 | 33990 ft | 490 kts | 85° |
| 2026-05-06 15:10 | 18.20789 | -67.88502 | 34330 ft | 489 kts | 85° |
| 2026-05-06 15:10 | 18.21029 | -67.84937 | 34655 ft | 489 kts | 85° |
| 2026-05-06 15:10 | 18.21272 | -67.81357 | 34989 ft | 488 kts | 85° |
| 2026-05-06 15:11 | 18.21513 | -67.77788 | 35126 ft | 489 kts | 85° |
| 2026-05-06 15:11 | 18.21989 | -67.70712 | 35134 ft | 487 kts | 85° |
| 2026-05-06 15:12 | 18.22467 | -67.63585 | 35131 ft | 487 kts | 85° |
| 2026-05-06 15:12 | 18.22937 | -67.56534 | 35127 ft | 487 kts | 85° |
| 2026-05-06 15:13 | 18.23407 | -67.49434 | 35126 ft | 487 kts | 85° |
| 2026-05-06 15:13 | 18.23876 | -67.42311 | 35128 ft | 487 kts | 85° |
| 2026-05-06 15:14 | 18.24342 | -67.35203 | 35130 ft | 487 kts | 85° |
| 2026-05-06 15:14 | 18.24806 | -67.28083 | 35133 ft | 487 kts | 85° |
| 2026-05-06 15:15 | 18.25268 | -67.20954 | 35137 ft | 487 kts | 85° |
| 2026-05-06 15:15 | 18.25566 | -67.13881 | 35138 ft | 488 kts | 92° |
| 2026-05-06 15:16 | 18.25350 | -67.06741 | 35140 ft | 488 kts | 90° |
| 2026-05-06 15:16 | 18.25209 | -66.99601 | 35141 ft | 488 kts | 90° |
| 2026-05-06 15:17 | 18.25092 | -66.93284 | 35134 ft | 488 kts | 90° |
| 2026-05-06 15:17 | 18.24968 | -66.86665 | 35143 ft | 489 kts | 90° |
| 2026-05-06 15:18 | 18.24843 | -66.80101 | 35140 ft | 488 kts | 90° |
| 2026-05-06 15:18 | 18.24704 | -66.72969 | 35134 ft | 488 kts | 90° |
| 2026-05-06 15:19 | 18.24564 | -66.65874 | 35134 ft | 489 kts | 90° |
| 2026-05-06 15:19 | 18.24420 | -66.58733 | 35133 ft | 489 kts | 90° |
| 2026-05-06 15:20 | 18.24272 | -66.51553 | 35131 ft | 489 kts | 91° |
| 2026-05-06 15:20 | 18.24019 | -66.45232 | 35135 ft | 489 kts | 92° |
| 2026-05-06 15:21 | 18.23748 | -66.38425 | 35138 ft | 489 kts | 92° |
| 2026-05-06 15:21 | 18.23495 | -66.32053 | 35136 ft | 489 kts | 92° |
| 2026-05-06 15:22 | 18.23253 | -66.25993 | 35138 ft | 489 kts | 92° |
| 2026-05-06 15:22 | 18.22960 | -66.18750 | 35132 ft | 489 kts | 92° |
| 2026-05-06 15:23 | 18.22669 | -66.11602 | 35138 ft | 489 kts | 92° |
| 2026-05-06 15:23 | 18.22375 | -66.04455 | 35138 ft | 489 kts | 92° |
| 2026-05-06 15:24 | 18.22081 | -65.97356 | 35141 ft | 489 kts | 92° |
| 2026-05-06 15:24 | 18.21782 | -65.90219 | 35139 ft | 489 kts | 92° |
| 2026-05-06 15:25 | 18.21480 | -65.83072 | 35138 ft | 489 kts | 92° |
| 2026-05-06 15:25 | 18.21176 | -65.75935 | 35139 ft | 489 kts | 92° |
| 2026-05-06 15:26 | 18.20869 | -65.68780 | 35136 ft | 489 kts | 92° |
| 2026-05-06 15:26 | 18.20559 | -65.61625 | 35135 ft | 489 kts | 92° |
| 2026-05-06 15:27 | 18.20246 | -65.54477 | 35134 ft | 489 kts | 92° |
| 2026-05-06 15:27 | 18.19931 | -65.47335 | 35142 ft | 489 kts | 92° |
| 2026-05-06 15:28 | 18.19615 | -65.40215 | 35137 ft | 490 kts | 93° |
| 2026-05-06 15:28 | 18.19297 | -65.33121 | 35139 ft | 479 kts | 93° |
| 2026-05-06 15:29 | 18.18983 | -65.26178 | 35138 ft | 473 kts | 93° |
| 2026-05-06 15:29 | 18.18670 | -65.19285 | 34772 ft | 472 kts | 93° |
| 2026-05-06 15:29 | 18.18511 | -65.15801 | 33818 ft | 481 kts | 93° |
| 2026-05-06 15:30 | 18.18348 | -65.12268 | 32780 ft | 488 kts | 92° |
| 2026-05-06 15:30 | 18.18182 | -65.08655 | 31763 ft | 495 kts | 92° |
| 2026-05-06 15:30 | 18.18013 | -65.05009 | 30785 ft | 502 kts | 92° |
| 2026-05-06 15:30 | 18.17842 | -65.01339 | 30008 ft | 502 kts | 92° |
| 2026-05-06 15:31 | 18.17638 | -64.97710 | 29445 ft | 495 kts | 97° |
| 2026-05-06 15:31 | 18.17030 | -64.94203 | 28921 ft | 488 kts | 101° |
| 2026-05-06 15:31 | 18.16388 | -64.90723 | 28467 ft | 480 kts | 100° |
| 2026-05-06 15:32 | 18.15148 | -64.83906 | 27384 ft | 470 kts | 100° |
| 2026-05-06 15:32 | 18.14735 | -64.81638 | 27027 ft | 466 kts | 100° |
| 2026-05-06 15:32 | 18.14135 | -64.78349 | 26509 ft | 461 kts | 100° |
| 2026-05-06 15:32 | 18.13534 | -64.75059 | 25986 ft | 457 kts | 99° |
| 2026-05-06 15:33 | 18.12936 | -64.71788 | 25470 ft | 452 kts | 99° |
| 2026-05-06 15:33 | 18.12346 | -64.68567 | 24955 ft | 448 kts | 99° |
| 2026-05-06 15:33 | 18.11760 | -64.65362 | 24456 ft | 444 kts | 99° |
| 2026-05-06 15:33 | 18.11177 | -64.62186 | 23971 ft | 440 kts | 99° |
| 2026-05-06 15:34 | 18.10600 | -64.59043 | 23415 ft | 436 kts | 99° |
| 2026-05-06 15:34 | 18.10027 | -64.55925 | 22870 ft | 432 kts | 99° |
| 2026-05-06 15:34 | 18.09449 | -64.52783 | 22310 ft | 448 kts | 99° |
| 2026-05-06 15:34 | 18.08851 | -64.49536 | 21819 ft | 445 kts | 99° |
| 2026-05-06 15:35 | 18.08283 | -64.46456 | 21431 ft | 424 kts | 99° |
| 2026-05-06 15:35 | 18.07734 | -64.43476 | 20959 ft | 407 kts | 99° |
| 2026-05-06 15:35 | 18.07206 | -64.40612 | 20492 ft | 392 kts | 99° |
| 2026-05-06 15:35 | 18.06695 | -64.37851 | 20038 ft | 379 kts | 99° |
| 2026-05-06 15:36 | 18.06201 | -64.35179 | 19612 ft | 366 kts | 99° |
| 2026-05-06 15:36 | 18.05723 | -64.32594 | 19202 ft | 355 kts | 99° |
| 2026-05-06 15:36 | 18.05258 | -64.30082 | 18789 ft | 346 kts | 99° |
| 2026-05-06 15:36 | 18.04797 | -64.27593 | 18359 ft | 349 kts | 99° |
| 2026-05-06 15:37 | 18.04330 | -64.25073 | 17888 ft | 351 kts | 100° |
| 2026-05-06 15:37 | 18.03864 | -64.22563 | 17469 ft | 351 kts | 100° |
| 2026-05-06 15:37 | 18.03397 | -64.20043 | 17052 ft | 350 kts | 100° |
| 2026-05-06 15:37 | 18.02932 | -64.17543 | 16642 ft | 348 kts | 100° |
| 2026-05-06 15:38 | 18.02474 | -64.15079 | 16236 ft | 346 kts | 100° |
| 2026-05-06 15:38 | 18.02013 | -64.12603 | 15826 ft | 344 kts | 100° |
| 2026-05-06 15:38 | 18.01553 | -64.10139 | 15421 ft | 342 kts | 100° |
| 2026-05-06 15:38 | 18.01099 | -64.07700 | 15005 ft | 340 kts | 101° |
| 2026-05-06 15:39 | 18.00645 | -64.05267 | 14602 ft | 338 kts | 101° |
| 2026-05-06 15:39 | 18.00193 | -64.02845 | 14200 ft | 336 kts | 101° |
| 2026-05-06 15:39 | 17.99744 | -64.00441 | 13780 ft | 335 kts | 101° |
| 2026-05-06 15:39 | 17.99293 | -63.98031 | 13332 ft | 333 kts | 101° |
| 2026-05-06 15:40 | 17.98855 | -63.95683 | 12918 ft | 331 kts | 101° |
| 2026-05-06 15:40 | 17.98412 | -63.93316 | 12515 ft | 328 kts | 101° |
| 2026-05-06 15:40 | 17.97973 | -63.90974 | 12116 ft | 325 kts | 101° |
| 2026-05-06 15:40 | 17.97537 | -63.88648 | 11714 ft | 323 kts | 101° |
| 2026-05-06 15:41 | 17.97105 | -63.86344 | 11315 ft | 320 kts | 101° |
| 2026-05-06 15:41 | 17.96676 | -63.84059 | 10919 ft | 318 kts | 101° |
| 2026-05-06 15:41 | 17.96250 | -63.81795 | 10559 ft | 314 kts | 101° |
| 2026-05-06 15:41 | 17.95835 | -63.79585 | 10398 ft | 303 kts | 101° |
| 2026-05-06 15:42 | 17.95433 | -63.77446 | 10185 ft | 295 kts | 101° |
| 2026-05-06 15:42 | 17.95037 | -63.75338 | 9799 ft | 294 kts | 101° |
| 2026-05-06 15:42 | 17.94639 | -63.73226 | 9388 ft | 293 kts | 101° |
| 2026-05-06 15:42 | 17.94246 | -63.71137 | 9009 ft | 290 kts | 101° |
| 2026-05-06 15:43 | 17.93856 | -63.69067 | 8646 ft | 287 kts | 101° |
| 2026-05-06 15:43 | 17.93523 | -63.67038 | 8277 ft | 285 kts | 92° |
| 2026-05-06 15:43 | 17.93800 | -63.64958 | 7900 ft | 284 kts | 78° |
| 2026-05-06 15:43 | 17.94227 | -63.62952 | 7569 ft | 281 kts | 78° |
| 2026-05-06 15:44 | 17.94643 | -63.60982 | 7226 ft | 279 kts | 78° |
| 2026-05-06 15:44 | 17.95066 | -63.59001 | 6884 ft | 276 kts | 78° |
| 2026-05-06 15:44 | 17.95488 | -63.57041 | 6540 ft | 274 kts | 78° |
| 2026-05-06 15:44 | 17.95908 | -63.55095 | 6181 ft | 272 kts | 78° |
| 2026-05-06 15:45 | 17.96324 | -63.53168 | 5829 ft | 271 kts | 79° |
| 2026-05-06 15:45 | 17.96740 | -63.51237 | 5416 ft | 271 kts | 79° |
| 2026-05-06 15:45 | 17.97157 | -63.49309 | 5023 ft | 272 kts | 79° |
| 2026-05-06 15:45 | 17.97575 | -63.47370 | 4643 ft | 271 kts | 79° |
| 2026-05-06 15:46 | 17.97990 | -63.45444 | 4291 ft | 269 kts | 79° |
| 2026-05-06 15:46 | 17.98402 | -63.43535 | 4002 ft | 264 kts | 79° |
| 2026-05-06 15:46 | 17.98799 | -63.41694 | 3863 ft | 253 kts | 79° |
| 2026-05-06 15:46 | 17.99180 | -63.39923 | 3728 ft | 244 kts | 79° |
| 2026-05-06 15:47 | 17.99547 | -63.38221 | 3582 ft | 234 kts | 80° |
| 2026-05-06 15:47 | 17.99899 | -63.36583 | 3439 ft | 226 kts | 79° |
| 2026-05-06 15:47 | 18.00239 | -63.35001 | 3291 ft | 217 kts | 79° |
| 2026-05-06 15:47 | 18.00563 | -63.33498 | 3139 ft | 209 kts | 79° |
| 2026-05-06 15:48 | 18.00877 | -63.32031 | 2972 ft | 205 kts | 79° |
| 2026-05-06 15:48 | 18.01196 | -63.30547 | 2711 ft | 209 kts | 79° |
| 2026-05-06 15:48 | 18.01481 | -63.29063 | 2594 ft | 203 kts | 83° |
| 2026-05-06 15:48 | 18.01685 | -63.27618 | 2451 ft | 197 kts | 83° |
| 2026-05-06 15:49 | 18.01885 | -63.26225 | 2291 ft | 187 kts | 82° |
| 2026-05-06 15:49 | 18.02076 | -63.24912 | 2147 ft | 175 kts | 83° |
| 2026-05-06 15:49 | 18.02252 | -63.23708 | 2010 ft | 166 kts | 82° |
| 2026-05-06 15:49 | 18.02427 | -63.22506 | 1890 ft | 164 kts | 82° |
| 2026-05-06 15:50 | 18.02596 | -63.21367 | 1761 ft | 157 kts | 83° |
| 2026-05-06 15:50 | 18.02759 | -63.20232 | 1678 ft | 155 kts | 82° |
| 2026-05-06 15:50 | 18.02912 | -63.19165 | 1460 ft | 143 kts | 84° |
| 2026-05-06 15:50 | 18.03058 | -63.18144 | 1258 ft | 141 kts | 84° |
| 2026-05-06 15:51 | 18.03208 | -63.17068 | 1084 ft | 155 kts | 82° |
| 2026-05-06 15:51 | 18.03361 | -63.16013 | 861 ft | 139 kts | 83° |
| 2026-05-06 15:51 | 18.03511 | -63.15016 | 663 ft | 135 kts | 82° |
| 2026-05-06 15:51 | 18.03653 | -63.14033 | 489 ft | 138 kts | 84° |
| 2026-05-06 15:52 | 18.03802 | -63.13042 | 310 ft | 135 kts | 84° |
| 2026-05-06 15:52 | 18.03930 | -63.12080 | 111 ft | 135 kts | 83° |
| 2026-05-06 15:52 | 18.04050 | -63.11146 | 24 ft | 107 kts | 78° |
| 2026-05-06 15:52 | 18.04141 | -63.10568 | 24 ft | 67 kts | 81° |
| 2026-05-06 15:53 | 18.04200 | -63.10150 | 25 ft | 41 kts | 80° |
| 2026-05-06 15:53 | 18.04237 | -63.09952 | 24 ft | 14 kts | 51° |
| 2026-05-06 15:53 | 18.04290 | -63.09867 | 24 ft | 12 kts | 83° |
| 2026-05-06 15:53 | 18.04257 | -63.09837 | 24 ft | 5 kts | 184° |
| 2026-05-06 15:54 | 18.04238 | -63.09858 | 23 ft | 5 kts | 264° |
| 2026-05-06 15:54 | 18.04234 | -63.09906 | 23 ft | 8 kts | 261° |
| 2026-05-06 15:54 | 18.04223 | -63.09978 | 22 ft | 12 kts | 261° |
| 2026-05-06 15:54 | 18.04210 | -63.10072 | 22 ft | 14 kts | 261° |
| 2026-05-06 15:55 | 18.04193 | -63.10186 | 22 ft | 17 kts | 261° |
| 2026-05-06 15:55 | 18.04174 | -63.10316 | 22 ft | 19 kts | 261° |
| 2026-05-06 15:55 | 18.04152 | -63.10465 | 24 ft | 22 kts | 261° |
| 2026-05-06 15:55 | 18.04131 | -63.10628 | 24 ft | 23 kts | 262° |
| 2026-05-06 15:56 | 18.04109 | -63.10785 | 23 ft | 23 kts | 261° |
| 2026-05-06 15:56 | 18.04084 | -63.10960 | 25 ft | 23 kts | 261° |
| 2026-05-06 15:56 | 18.04061 | -63.11110 | 26 ft | 22 kts | 261° |
| 2026-05-06 15:56 | 18.04050 | -63.11253 | 25 ft | 17 kts | 289° |
| 2026-05-06 15:57 | 18.04131 | -63.11295 | 23 ft | 11 kts | 351° |
| 2026-05-06 15:57 | 18.04209 | -63.11307 | 23 ft | 11 kts | 352° |
| 2026-05-06 15:57 | 18.04273 | -63.11295 | 23 ft | 9 kts | 34° |
| 2026-05-06 15:57 | 18.04316 | -63.11290 | 23 ft | 2 kts | 351° |
| 2026-05-06 15:58 | 18.04319 | -63.11290 | 23 ft | 0 kts | 352° |
| 2026-05-06 15:58 | 18.04334 | -63.11293 | 23 ft | 0 kts | 351° |